createdAt,value
2018-05-10T00:01:21.815Z,8.57
2018-05-10T00:03:49.350Z,8.07
2018-05-10T00:06:17.287Z,7.60
2018-05-10T00:08:44.877Z,6.90
2018-05-10T00:11:13.030Z,7.90
2018-05-10T00:13:40.530Z,7.30
2018-05-10T00:16:08.068Z,8.93
2018-05-10T00:18:35.582Z,8.40
2018-05-10T00:21:03.246Z,7.03
2018-05-10T00:23:30.743Z,7.80
2018-05-10T00:25:58.270Z,8.10
2018-05-10T00:28:25.842Z,7.97
2018-05-10T00:30:53.359Z,7.67
2018-05-10T00:33:20.937Z,7.60
2018-05-10T00:35:48.483Z,7.43
2018-05-10T00:38:16.798Z,7.50
2018-05-10T00:40:44.322Z,7.60
2018-05-10T00:43:11.863Z,7.90
2018-05-10T00:45:39.455Z,7.43
2018-05-10T00:48:06.994Z,7.43
2018-05-10T00:50:34.574Z,8.60
2018-05-10T00:53:02.159Z,7.70
2018-05-10T00:55:29.706Z,7.00
2018-05-10T00:57:57.250Z,8.27
2018-05-10T01:00:24.796Z,7.37
2018-05-10T01:02:52.490Z,8.37
2018-05-10T01:05:20.006Z,7.60
2018-05-10T01:07:47.517Z,8.10
2018-05-10T01:10:15.079Z,8.47
2018-05-10T01:12:42.610Z,7.43
2018-05-10T01:15:10.133Z,7.40
2018-05-10T01:17:37.701Z,7.97
2018-05-10T01:20:05.237Z,7.70
2018-05-10T01:22:32.774Z,8.47
2018-05-10T01:25:00.301Z,7.77
2018-05-10T01:27:27.854Z,8.07
2018-05-10T01:29:55.453Z,7.67
2018-05-10T01:32:22.983Z,7.10
2018-05-10T01:35:02.322Z,7.43
2018-05-10T01:37:29.880Z,7.73
2018-05-10T01:39:57.413Z,8.40
2018-05-10T01:42:24.979Z,8.67
2018-05-10T01:44:52.514Z,8.20
2018-05-10T01:47:20.034Z,7.97
2018-05-10T01:49:47.594Z,8.07
2018-05-10T01:52:15.122Z,7.70
2018-05-10T01:54:42.732Z,7.77
2018-05-10T01:57:10.303Z,7.80
2018-05-10T01:59:37.865Z,7.70
2018-05-10T02:02:05.459Z,7.90
2018-05-10T02:04:33.051Z,8.27
2018-05-10T02:07:00.614Z,7.27
2018-05-10T02:09:28.252Z,7.87
2018-05-10T02:11:56.117Z,7.50
2018-05-10T02:14:23.642Z,6.87
2018-05-10T02:16:51.180Z,8.33
2018-05-10T02:19:18.730Z,8.77
2018-05-10T02:21:46.290Z,7.67
2018-05-10T02:24:13.865Z,8.10
2018-05-10T02:26:41.563Z,8.93
2018-05-10T02:29:09.095Z,8.20
2018-05-10T02:31:36.650Z,8.30
2018-05-10T02:34:04.233Z,9.23
2018-05-10T02:36:31.766Z,8.97
2018-05-10T02:38:59.281Z,9.27
2018-05-10T02:41:26.889Z,9.60
2018-05-10T02:43:54.453Z,8.80
2018-05-10T02:46:22.014Z,9.80
2018-05-10T02:48:49.548Z,9.53
2018-05-10T02:51:17.073Z,8.90
2018-05-10T02:53:44.621Z,9.47
2018-05-10T02:56:12.192Z,9.33
2018-05-10T02:58:39.770Z,9.67
2018-05-10T03:01:07.419Z,8.97
2018-05-10T03:03:34.958Z,9.13
2018-05-10T03:06:02.562Z,8.67
2018-05-10T03:08:30.111Z,9.13
2018-05-10T03:10:57.682Z,9.67
2018-05-10T03:13:25.275Z,10.43
2018-05-10T03:15:52.802Z,11.00
2018-05-10T03:21:00.470Z,9.63
2018-05-10T03:23:28.031Z,9.27
2018-05-10T03:25:55.574Z,9.67
2018-05-10T03:28:23.130Z,9.50
2018-05-10T03:30:50.653Z,9.67
2018-05-10T03:33:18.348Z,10.07
2018-05-10T03:35:45.839Z,9.73
2018-05-10T03:38:13.414Z,10.67
2018-05-10T03:40:40.994Z,11.07
2018-05-10T03:43:08.590Z,11.40
2018-05-10T03:45:36.105Z,10.93
2018-05-10T03:48:03.693Z,11.33
2018-05-10T03:50:31.243Z,11.03
2018-05-10T03:52:58.786Z,11.97
2018-05-10T03:55:26.326Z,11.00
2018-05-10T03:57:53.933Z,11.00
2018-05-10T04:00:21.450Z,10.27
2018-05-10T04:06:15.674Z,10.50
2018-05-10T04:08:54.982Z,10.13
2018-05-10T04:11:23.178Z,8.93
2018-05-10T04:13:50.709Z,9.47
2018-05-10T04:16:18.247Z,9.30
2018-05-10T04:18:45.835Z,8.67
2018-05-10T04:21:14.257Z,8.93
2018-05-10T04:23:41.761Z,8.97
2018-05-10T04:26:09.327Z,8.50
2018-05-10T04:28:36.857Z,8.73
2018-05-10T04:31:04.425Z,8.00
2018-05-10T04:33:31.946Z,8.07
2018-05-10T04:35:59.532Z,8.47
2018-05-10T04:38:27.033Z,7.57
2018-05-10T04:40:54.627Z,7.33
2018-05-10T04:43:22.153Z,7.47
2018-05-10T04:45:49.713Z,7.40
2018-05-10T04:48:17.257Z,7.53
2018-05-10T04:50:44.842Z,7.63
2018-05-10T04:53:12.360Z,8.13
2018-05-10T04:55:39.933Z,7.50
2018-05-10T04:58:07.485Z,7.47
2018-05-10T05:00:35.035Z,7.27
2018-05-10T05:03:02.604Z,7.50
2018-05-10T05:05:30.119Z,7.83
2018-05-10T05:07:57.669Z,7.40
2018-05-10T05:10:25.182Z,8.10
2018-05-10T05:12:53.681Z,8.00
2018-05-10T05:15:21.197Z,7.83
2018-05-10T05:17:48.748Z,7.33
2018-05-10T05:20:16.254Z,6.80
2018-05-10T05:22:43.794Z,6.93
2018-05-10T05:25:11.350Z,6.97
2018-05-10T05:27:38.957Z,7.10
2018-05-10T05:30:06.461Z,7.20
2018-05-10T05:32:34.041Z,6.67
2018-05-10T05:35:01.565Z,6.10
2018-05-10T05:37:29.116Z,6.27
2018-05-10T05:39:56.646Z,6.33
2018-05-10T05:42:24.169Z,5.97
2018-05-10T05:44:51.707Z,6.23
2018-05-10T05:47:19.322Z,5.77
2018-05-10T05:49:46.843Z,5.90
2018-05-10T05:52:14.463Z,5.50
2018-05-10T05:54:42.001Z,5.67
2018-05-10T05:57:09.529Z,5.93
2018-05-10T05:59:37.054Z,5.60
2018-05-10T06:02:04.562Z,5.40
2018-05-10T06:04:32.127Z,5.67
2018-05-10T06:06:59.658Z,5.00
2018-05-10T06:09:27.180Z,5.50
2018-05-10T06:11:54.740Z,5.00
2018-05-10T06:14:22.249Z,4.90
2018-05-10T06:16:49.755Z,4.93
2018-05-10T06:19:17.315Z,4.87
2018-05-10T06:21:44.806Z,4.62
2018-05-10T06:24:12.370Z,4.45
2018-05-10T06:26:39.904Z,4.37
2018-05-10T06:29:07.442Z,4.30
2018-05-10T06:31:34.997Z,4.30
2018-05-10T06:34:02.594Z,4.65
2018-05-10T06:36:30.108Z,4.68
2018-05-10T06:38:57.655Z,4.78
2018-05-10T06:41:25.158Z,3.87
2018-05-10T06:43:52.699Z,3.72
2018-05-10T06:46:20.195Z,4.18
2018-05-10T06:48:47.923Z,4.07
2018-05-10T06:51:15.446Z,3.97
2018-05-10T06:53:42.950Z,3.90
2018-05-10T06:56:10.484Z,3.80
2018-05-10T06:58:37.964Z,3.80
2018-05-10T07:01:05.476Z,3.95
2018-05-10T07:03:32.994Z,3.97
2018-05-10T07:06:00.545Z,4.43
2018-05-10T07:08:28.057Z,4.30
2018-05-10T07:10:55.664Z,3.67
2018-05-10T07:13:23.200Z,4.53
2018-05-10T07:15:50.764Z,3.92
2018-05-10T07:18:18.287Z,3.85
2018-05-10T07:20:45.841Z,3.70
2018-05-10T07:23:13.358Z,3.70
2018-05-10T07:25:40.886Z,3.42
2018-05-10T07:28:08.459Z,3.85
2018-05-10T07:30:35.980Z,3.85
2018-05-10T07:33:03.534Z,3.87
2018-05-10T07:35:31.103Z,4.18
2018-05-10T07:37:58.633Z,4.15
2018-05-10T07:40:26.171Z,4.20
2018-05-10T07:42:53.710Z,3.97
2018-05-10T07:45:22.198Z,4.47
2018-05-10T07:47:50.051Z,3.90
2018-05-10T07:50:17.595Z,3.92
2018-05-10T07:52:45.190Z,4.30
2018-05-10T07:55:12.723Z,4.12
2018-05-10T07:57:40.243Z,4.05
2018-05-10T08:00:07.827Z,4.37
2018-05-10T08:02:35.454Z,4.00
2018-05-10T08:05:02.942Z,3.80
2018-05-10T08:07:30.526Z,4.10
2018-05-10T08:09:58.018Z,3.83
2018-05-10T08:12:25.549Z,4.05
2018-05-10T08:14:53.055Z,3.80
2018-05-10T08:17:20.723Z,4.15
2018-05-10T08:19:48.178Z,3.50
2018-05-10T08:22:15.717Z,3.97
2018-05-10T08:24:43.240Z,3.40
2018-05-10T08:27:10.801Z,3.80
2018-05-10T08:29:38.507Z,3.37
2018-05-10T08:32:06.046Z,3.55
2018-05-10T08:34:33.601Z,3.83
2018-05-10T08:37:01.159Z,4.10
2018-05-10T08:39:28.718Z,4.07
2018-05-10T08:41:56.273Z,3.50
2018-05-10T08:44:23.818Z,3.30
2018-05-10T08:46:51.350Z,4.57
2018-05-10T08:49:18.926Z,3.20
2018-05-10T08:51:46.548Z,3.50
2018-05-10T08:54:14.003Z,3.35
2018-05-10T08:56:41.533Z,4.55
2018-05-10T08:59:09.090Z,3.60
2018-05-10T09:01:36.595Z,3.60
2018-05-10T09:04:04.124Z,2.72
2018-05-10T09:06:31.628Z,2.78
2018-05-10T09:08:59.176Z,3.03
2018-05-10T09:11:26.728Z,2.85
2018-05-10T09:13:54.273Z,3.45
2018-05-10T09:16:21.790Z,3.47
2018-05-10T09:18:49.330Z,3.37
2018-05-10T09:21:16.882Z,3.00
2018-05-10T09:23:44.422Z,3.40
2018-05-10T09:26:11.954Z,3.40
2018-05-10T09:28:39.472Z,3.17
2018-05-10T09:31:06.991Z,3.70
2018-05-10T09:33:34.931Z,3.20
2018-05-10T09:36:02.498Z,3.62
2018-05-10T09:38:30.142Z,3.70
2018-05-10T09:40:58.670Z,3.85
2018-05-10T09:43:26.210Z,3.47
2018-05-10T09:45:53.738Z,4.65
2018-05-10T09:48:21.342Z,3.28
2018-05-10T09:50:48.882Z,3.60
2018-05-10T09:53:16.415Z,3.80
2018-05-10T09:55:43.969Z,3.60
2018-05-10T09:58:11.484Z,3.45
2018-05-10T10:00:39.053Z,3.15
2018-05-10T10:03:06.606Z,3.75
2018-05-10T10:05:34.502Z,4.05
2018-05-10T10:08:02.003Z,3.13
2018-05-10T10:10:29.569Z,3.85
2018-05-10T10:12:57.087Z,3.10
2018-05-10T10:15:24.616Z,3.58
2018-05-10T10:17:52.142Z,3.80
2018-05-10T10:20:19.679Z,4.37
2018-05-10T10:22:47.242Z,4.40
2018-05-10T10:25:14.848Z,4.10
2018-05-10T10:27:42.355Z,4.23
2018-05-10T10:30:09.883Z,4.10
2018-05-10T10:32:37.425Z,4.00
2018-05-10T10:35:05.270Z,4.00
2018-05-10T10:37:32.817Z,3.80
2018-05-10T10:40:00.370Z,4.20
2018-05-10T10:42:27.967Z,4.17
2018-05-10T10:44:55.500Z,5.20
2018-05-10T10:47:23.042Z,4.73
2018-05-10T10:49:50.555Z,4.60
2018-05-10T10:52:18.111Z,5.13
2018-05-10T10:54:45.682Z,4.60
2018-05-10T10:57:13.311Z,5.20
2018-05-10T10:59:40.915Z,5.33
2018-05-10T11:02:08.453Z,5.77
2018-05-10T11:04:36.161Z,6.23
2018-05-10T11:07:03.698Z,5.33
2018-05-10T11:09:31.455Z,5.50
2018-05-10T11:11:59.255Z,5.30
2018-05-10T11:14:27.038Z,6.63
2018-05-10T11:16:54.586Z,5.13
2018-05-10T11:19:22.127Z,2.63
2018-05-10T11:21:49.674Z,2.60
2018-05-10T11:24:17.229Z,3.00
2018-05-10T11:26:44.790Z,3.73
2018-05-10T11:29:12.315Z,4.90
2018-05-10T11:31:39.810Z,6.00
2018-05-10T11:34:07.318Z,6.67
2018-05-10T11:36:34.806Z,6.63
2018-05-10T11:39:02.376Z,6.43
2018-05-10T11:41:29.835Z,7.07
2018-05-10T11:43:57.356Z,6.43
2018-05-10T11:46:24.854Z,7.07
2018-05-10T11:48:52.375Z,6.23
2018-05-10T11:51:19.869Z,6.50
2018-05-10T11:53:47.389Z,6.40
2018-05-10T11:56:14.937Z,6.27
2018-05-10T11:58:42.460Z,5.43
2018-05-10T12:01:09.957Z,4.77
2018-05-10T12:03:37.468Z,4.83
2018-05-10T12:06:04.984Z,4.63
2018-05-10T12:08:32.503Z,4.87
2018-05-10T12:10:59.989Z,4.50
2018-05-10T12:13:27.493Z,4.53
2018-05-10T12:15:55.070Z,4.40
2018-05-10T12:18:22.534Z,4.30
2018-05-10T12:20:50.032Z,4.53
2018-05-10T12:23:17.531Z,4.53
2018-05-10T12:25:45.048Z,4.30
2018-05-10T12:28:12.554Z,5.03
2018-05-10T12:30:40.076Z,5.40
2018-05-10T12:33:07.566Z,4.93
2018-05-10T12:35:35.075Z,4.90
2018-05-10T12:38:02.576Z,4.83
2018-05-10T12:40:30.086Z,4.73
2018-05-10T12:42:57.581Z,4.33
2018-05-10T12:45:25.966Z,4.67
2018-05-10T12:47:53.519Z,4.23
2018-05-10T12:50:22.300Z,5.27
2018-05-10T12:52:49.888Z,4.67
2018-05-10T12:55:17.462Z,4.70
2018-05-10T12:57:45.033Z,5.27
2018-05-10T13:00:12.599Z,5.87
2018-05-10T13:02:40.160Z,5.50
2018-05-10T13:05:07.742Z,5.37
2018-05-10T13:07:35.340Z,5.47
2018-05-10T13:10:02.932Z,5.00
2018-05-10T13:12:30.481Z,5.50
2018-05-10T13:14:58.051Z,5.53
2018-05-10T13:17:25.672Z,4.20
2018-05-10T13:19:53.208Z,4.93
2018-05-10T13:22:21.401Z,4.60
2018-05-10T13:24:48.967Z,3.93
2018-05-10T13:27:16.643Z,4.20
2018-05-10T13:29:44.116Z,4.10
2018-05-10T13:32:11.717Z,4.27
2018-05-10T13:34:39.241Z,5.10
2018-05-10T13:37:06.818Z,4.40
2018-05-10T13:39:34.345Z,4.40
2018-05-10T13:42:01.956Z,4.00
2018-05-10T13:44:29.504Z,4.90
2018-05-10T13:46:57.146Z,4.50
2018-05-10T13:49:25.097Z,4.00
2018-05-10T13:51:52.694Z,4.40
2018-05-10T13:54:20.214Z,4.50
2018-05-10T13:56:47.742Z,4.87
2018-05-10T13:59:15.264Z,4.60
2018-05-10T14:01:42.787Z,4.33
2018-05-10T14:04:10.333Z,3.80
2018-05-10T14:06:37.923Z,3.33
2018-05-10T14:09:06.371Z,3.60
2018-05-10T14:11:33.893Z,3.73
2018-05-10T14:14:01.407Z,3.50
2018-05-10T14:16:28.945Z,3.17
2018-05-10T14:18:57.504Z,3.60
2018-05-10T14:21:25.034Z,3.80
2018-05-10T14:23:52.555Z,3.50
2018-05-10T14:26:20.062Z,3.40
2018-05-10T14:28:47.607Z,3.90
2018-05-10T14:31:15.115Z,3.20
2018-05-10T14:33:42.686Z,3.40
2018-05-10T14:36:10.342Z,2.97
2018-05-10T14:38:38.295Z,3.17
2018-05-10T14:41:06.104Z,3.00
2018-05-10T14:43:33.636Z,3.30
2018-05-10T14:46:01.177Z,3.33
2018-05-10T14:48:29.006Z,3.10
2018-05-10T14:50:56.564Z,2.73
2018-05-10T14:53:24.083Z,3.47
2018-05-10T14:55:51.605Z,2.97
2018-05-10T14:58:19.223Z,3.00
2018-05-10T15:00:46.767Z,3.23
2018-05-10T15:03:14.358Z,3.47
2018-05-10T15:05:41.889Z,3.13
2018-05-10T15:08:09.440Z,6.00
2018-05-10T15:10:36.957Z,6.43
2018-05-10T15:13:04.491Z,7.23
2018-05-10T15:15:32.144Z,3.30
2018-05-10T15:18:02.239Z,3.70
2018-05-10T15:20:30.342Z,3.27
2018-05-10T15:22:57.861Z,5.10
2018-05-10T15:25:25.404Z,6.27
2018-05-10T15:27:52.940Z,3.70
2018-05-10T15:30:21.630Z,3.63
2018-05-10T15:32:49.140Z,3.10
2018-05-10T15:35:16.684Z,2.90
2018-05-10T15:37:44.250Z,2.60
2018-05-10T15:40:11.840Z,3.00
2018-05-10T15:42:39.374Z,3.00
2018-05-10T15:45:06.911Z,3.37
2018-05-10T15:47:34.418Z,2.90
2018-05-10T15:50:01.957Z,3.23
2018-05-10T15:52:29.447Z,3.50
2018-05-10T15:54:56.979Z,4.37
2018-05-10T15:57:24.508Z,3.37
2018-05-10T15:59:52.110Z,3.27
2018-05-10T16:02:19.635Z,3.37
2018-05-10T16:04:47.186Z,3.40
2018-05-10T16:07:14.719Z,3.23
2018-05-10T16:09:42.279Z,3.53
2018-05-10T16:12:09.861Z,3.77
2018-05-10T16:14:37.477Z,3.17
2018-05-10T16:17:05.008Z,3.40
2018-05-10T16:19:32.600Z,3.83
2018-05-10T16:22:00.309Z,3.47
2018-05-10T16:24:27.930Z,3.63
2018-05-10T16:26:55.563Z,3.23
2018-05-10T16:29:23.171Z,3.30
2018-05-10T16:31:50.765Z,3.33
2018-05-10T16:34:18.407Z,3.37
2018-05-10T16:36:46.050Z,3.43
2018-05-10T16:39:13.584Z,3.33
2018-05-10T16:41:43.311Z,3.60
2018-05-10T16:44:10.881Z,4.20
2018-05-10T16:46:38.529Z,3.77
2018-05-10T16:49:06.783Z,3.97
2018-05-10T16:51:34.340Z,3.53
2018-05-10T16:54:01.859Z,3.70
2018-05-10T16:56:29.474Z,7.77
2018-05-10T16:58:56.994Z,4.57
2018-05-10T17:01:24.544Z,3.30
2018-05-10T17:03:52.071Z,3.40
2018-05-10T17:06:19.599Z,3.60
2018-05-10T17:08:47.157Z,3.70
2018-05-10T17:11:14.653Z,3.80
2018-05-10T17:13:42.218Z,3.60
2018-05-10T17:16:09.743Z,3.67
2018-05-10T17:18:37.369Z,3.70
2018-05-10T17:21:04.838Z,3.47
2018-05-10T17:23:32.357Z,3.93
2018-05-10T17:25:59.855Z,3.77
2018-05-10T17:28:27.367Z,3.97
2018-05-10T17:30:54.959Z,3.93
2018-05-10T17:33:22.411Z,3.80
2018-05-10T17:35:49.911Z,4.10
2018-05-10T17:38:17.477Z,4.40
2018-05-10T17:40:44.972Z,3.97
2018-05-10T17:43:12.488Z,3.50
2018-05-10T17:45:39.980Z,3.37
2018-05-10T17:48:07.535Z,4.00
2018-05-10T17:50:35.017Z,3.93
2018-05-10T17:53:02.531Z,3.20
2018-05-10T17:55:30.017Z,3.20
2018-05-10T17:57:57.522Z,2.83
2018-05-10T18:00:25.034Z,2.50
2018-05-10T18:02:52.527Z,3.30
2018-05-10T18:05:20.050Z,3.43
2018-05-10T18:07:47.549Z,4.13
2018-05-10T18:10:15.066Z,4.80
2018-05-10T18:12:42.559Z,5.70
2018-05-10T18:15:10.307Z,5.83
2018-05-10T18:17:37.802Z,5.33
2018-05-10T18:20:05.316Z,6.60
2018-05-10T18:22:32.812Z,6.63
2018-05-10T18:25:00.386Z,6.67
2018-05-10T18:27:27.898Z,8.33
2018-05-10T18:29:55.426Z,10.57
2018-05-10T18:32:22.934Z,13.07
2018-05-10T18:34:50.458Z,14.20
2018-05-10T18:37:17.960Z,16.07
2018-05-10T18:39:45.487Z,17.47
2018-05-10T18:42:12.991Z,17.03
2018-05-10T18:44:40.514Z,17.37
2018-05-10T18:47:08.029Z,17.00
2018-05-10T18:49:35.641Z,17.10
2018-05-10T18:52:03.182Z,16.63
2018-05-10T18:54:31.451Z,16.50
2018-05-10T18:56:59.237Z,16.90
2018-05-10T18:59:26.906Z,15.87
2018-05-10T19:01:54.783Z,17.47
2018-05-10T19:04:22.495Z,14.70
2018-05-10T19:06:50.354Z,10.87
2018-05-10T19:09:18.067Z,8.63
2018-05-10T19:11:45.850Z,6.30
2018-05-10T19:14:13.522Z,5.60
2018-05-10T19:16:41.073Z,5.20
2018-05-10T19:19:08.606Z,4.87
2018-05-10T19:21:36.198Z,4.47
2018-05-10T19:24:03.711Z,4.50
2018-05-10T19:26:31.556Z,4.20
2018-05-10T19:28:59.364Z,4.50
2018-05-10T19:31:26.965Z,4.30
2018-05-10T19:33:54.471Z,4.40
2018-05-10T19:36:22.021Z,4.80
2018-05-10T19:39:05.374Z,4.77
2018-05-10T19:41:33.790Z,4.60
2018-05-10T19:44:03.853Z,4.70
2018-05-10T19:46:31.447Z,4.80
2018-05-10T19:48:58.973Z,4.93
2018-05-10T19:51:30.382Z,4.83
2018-05-10T19:53:58.915Z,4.50
2018-05-10T19:56:30.911Z,4.70
2018-05-10T19:59:07.663Z,4.73
2018-05-10T20:01:35.650Z,4.93
2018-05-10T20:04:03.170Z,4.90
2018-05-10T20:06:36.622Z,5.67
2018-05-10T20:09:04.177Z,5.00
2018-05-10T20:11:36.056Z,5.00
2018-05-10T20:14:03.964Z,6.13
2018-05-10T20:16:31.475Z,6.13
2018-05-10T20:18:59.060Z,6.40
2018-05-10T20:21:26.571Z,7.07
2018-05-10T20:23:54.139Z,7.23
2018-05-10T20:26:21.650Z,7.83
2018-05-10T20:28:49.217Z,8.03
2018-05-10T20:31:16.019Z,7.90
2018-05-10T20:33:43.622Z,8.87
2018-05-10T20:36:11.174Z,8.87
2018-05-10T20:38:38.746Z,9.20
2018-05-10T20:41:06.298Z,9.07
2018-05-10T20:43:33.855Z,9.83
2018-05-10T20:46:02.419Z,9.30
2018-05-10T20:48:29.959Z,9.53
2018-05-10T20:50:57.552Z,9.67
2018-05-10T20:53:25.127Z,11.43
2018-05-10T20:55:52.718Z,11.13
2018-05-10T20:58:20.995Z,11.33
2018-05-10T21:00:49.187Z,11.60
2018-05-10T21:03:16.759Z,11.87
2018-05-10T21:05:44.332Z,12.93
2018-05-10T21:08:11.914Z,13.90
2018-05-10T21:10:39.535Z,13.93
2018-05-10T21:13:07.209Z,14.27
2018-05-10T21:15:34.801Z,14.27
2018-05-10T21:18:02.376Z,13.80
2018-05-10T21:20:29.962Z,14.40
2018-05-10T21:22:57.552Z,14.80
2018-05-10T21:25:25.146Z,13.53
2018-05-10T21:27:52.717Z,14.00
2018-05-10T21:30:20.278Z,14.77
2018-05-10T21:32:47.836Z,15.00
2018-05-10T21:35:16.312Z,14.73
2018-05-10T21:37:44.404Z,14.70
2018-05-10T21:40:11.939Z,15.53
2018-05-10T21:42:39.491Z,14.23
2018-05-10T21:45:07.121Z,14.30
2018-05-10T21:47:34.659Z,14.80
2018-05-10T21:50:05.902Z,16.23
2018-05-10T21:52:33.405Z,15.40
2018-05-10T21:55:01.043Z,14.83
2018-05-10T21:57:28.527Z,13.97
2018-05-10T21:59:56.060Z,13.37
2018-05-10T22:02:23.675Z,15.10
2018-05-10T22:04:51.228Z,14.00
2018-05-10T22:07:18.825Z,14.07
2018-05-10T22:09:46.370Z,14.03
2018-05-10T22:12:13.995Z,14.60
2018-05-10T22:14:41.496Z,14.47
2018-05-10T22:17:09.034Z,14.83
2018-05-10T22:19:36.600Z,14.00
2018-05-10T22:22:04.146Z,14.77
2018-05-10T22:24:31.685Z,13.73
2018-05-10T22:26:59.222Z,14.23
2018-05-10T22:29:26.753Z,13.43
2018-05-10T22:31:54.339Z,13.60
2018-05-10T22:34:21.910Z,14.20
2018-05-10T22:36:49.441Z,13.00
2018-05-10T22:39:17.002Z,13.57
2018-05-10T22:41:44.634Z,13.27
2018-05-10T22:44:12.201Z,13.17
2018-05-10T22:46:39.760Z,14.67
2018-05-10T22:49:07.273Z,14.83
2018-05-10T22:51:34.822Z,13.27
2018-05-10T22:54:02.383Z,13.77
2018-05-10T22:56:29.939Z,13.80
2018-05-10T22:58:57.569Z,14.00
2018-05-10T23:01:25.114Z,13.57
2018-05-10T23:03:52.680Z,14.97
2018-05-10T23:06:20.220Z,15.03
2018-05-10T23:08:47.791Z,13.20
2018-05-10T23:11:15.322Z,14.63
2018-05-10T23:13:42.881Z,16.03
2018-05-10T23:16:10.409Z,15.40
2018-05-10T23:18:37.959Z,13.70
2018-05-10T23:21:05.547Z,15.13
2018-05-10T23:23:33.121Z,14.60
2018-05-10T23:26:00.636Z,14.60
2018-05-10T23:28:29.159Z,15.00
2018-05-10T23:30:56.696Z,14.50
2018-05-10T23:33:24.268Z,15.50
2018-05-10T23:35:51.789Z,13.63
2018-05-10T23:38:19.351Z,14.23
2018-05-10T23:40:46.908Z,15.63
2018-05-10T23:43:14.476Z,14.60
2018-05-10T23:45:42.408Z,14.03
2018-05-10T23:48:09.937Z,14.30
2018-05-10T23:50:37.536Z,14.07
2018-05-10T23:53:05.069Z,15.57
2018-05-10T23:55:32.617Z,14.37
2018-05-10T23:58:00.186Z,14.07
